Time;durP1;ratioP1;P1;durP2;ratioP2;P2;SDS_P1;SDS_P2;PMS_P1;PMS_P2;Temp;Humidity;BMP_temperature;BMP_pressure;BME280_temperature;BME280_humidity;BME280_pressure;Samples;Min_cycle;Max_cycle;Signal;HPM_P1;HPM_P2
2022/07/12 00:00:45;;;;;;;;;;;;;;;26.66;46.51;99746.56;2059807;28;19913;-55
2022/07/12 00:01:45;;;;;;;;;;;;;;;26.66;46.52;99738.25;2057057;28;20295;-56
2022/07/12 00:02:45;;;;;;;;;;;;;;;26.67;46.71;99737.19;2056841;28;19914;-57
2022/07/12 00:03:46;;;;;;;;;;;;;;;26.66;46.65;99741.03;2059379;28;19925;-56
2022/07/12 00:04:46;;;;;;;;;;;;;;;26.65;46.62;99739.31;2055079;28;19922;-56
2022/07/12 00:05:46;;;;;;;;;;;;;;;26.66;46.64;99733.56;2060739;28;19918;-56
2022/07/12 00:06:47;;;;;;;;;;;;;;;26.66;46.64;99736.34;2059239;28;20607;-57
2022/07/12 00:07:47;;;;;;;;;;;;;;;26.67;46.58;99734.41;2060911;28;19944;-56
2022/07/12 00:08:47;;;;;;;;;;;;;;;26.66;46.55;99729.97;2056832;28;19925;-56
2022/07/12 00:09:48;;;;;;;;;;;;;;;26.66;46.83;99729.97;2059435;28;20060;-56
2022/07/12 00:10:48;;;;;;;;;;;;;;;26.65;46.81;99733.78;2060579;28;20244;-56
2022/07/12 00:11:49;;;;;;;;;;;;;;;26.66;46.80;99735.50;2058595;28;19921;-56
2022/07/12 00:12:49;;;;;;;;;;;;;;;26.65;46.84;99734.63;2059132;28;19917;-56
2022/07/12 00:13:50;;;;;;;;;;;;;;;26.64;46.90;99737.63;2060888;28;19917;-56
2022/07/12 00:14:50;;;;;;;;;;;;;;;26.65;46.95;99742.06;2059062;28;19917;-56
2022/07/12 00:15:51;;;;;;;;;;;;;;;26.64;46.81;99743.97;2060881;28;20268;-56
2022/07/12 00:16:52;;;;;;;;;;;;;;;26.64;46.96;99743.13;2059100;28;19921;-56
2022/07/12 00:17:52;;;;;;;;;;;;;;;26.64;46.93;99743.13;2053926;28;19935;-56
2022/07/12 00:18:53;;;;;;;;;;;;;;;26.63;46.90;99735.88;2060688;28;19988;-56
2022/07/12 00:19:54;;;;;;;;;;;;;;;26.63;46.92;99741.41;2050102;28;19925;-56
2022/07/12 00:20:55;;;;;;;;;;;;;;;26.63;46.71;99741.41;2051209;28;20188;-56
2022/07/12 00:21:55;;;;;;;;;;;;;;;26.63;46.82;99744.19;2057856;28;19921;-56
2022/07/12 00:22:55;;;;;;;;;;;;;;;26.63;46.88;99752.47;2058088;28;20231;-57
2022/07/12 00:23:56;;;;;;;;;;;;;;;26.62;46.61;99742.50;2053646;28;19967;-57
2022/07/12 00:24:56;;;;;;;;;;;;;;;26.62;46.93;99746.09;2057995;28;19929;-57
2022/07/12 00:25:57;;;;;;;;;;;;;;;26.62;46.79;99742.50;2055380;28;20374;-56
2022/07/12 00:26:57;;;;;;;;;;;;;;;26.63;46.90;99760.75;2055657;28;20306;-56
2022/07/12 00:27:57;;;;;;;;;;;;;;;26.62;46.72;99750.78;2061061;28;19917;-56
2022/07/12 00:28:58;;;;;;;;;;;;;;;26.63;46.89;99755.25;2060613;28;19921;-56
2022/07/12 00:29:58;;;;;;;;;;;;;;;26.62;46.76;99756.31;2054727;28;19917;-57
2022/07/12 00:30:59;;;;;;;;;;;;;;;26.63;46.70;99752.47;2060230;28;20040;-57
2022/07/12 00:31:59;;;;;;;;;;;;;;;26.63;46.99;99755.25;2054774;28;19917;-56
2022/07/12 00:33:00;;;;;;;;;;;;;;;26.62;46.70;99746.09;2055230;28;19913;-56
2022/07/12 00:34:00;;;;;;;;;;;;;;;26.63;46.98;99758.00;2053477;28;19945;-56
2022/07/12 00:35:02;;;;;;;;;;;;;;;26.63;46.68;99755.25;2056517;28;19917;-56
2022/07/12 00:36:02;;;;;;;;;;;;;;;26.63;46.71;99758.00;2056916;28;19910;-56
2022/07/12 00:37:03;;;;;;;;;;;;;;;26.63;46.70;99758.00;2058750;28;19986;-56
2022/07/12 00:38:03;;;;;;;;;;;;;;;26.63;46.75;99752.47;2059764;28;20309;-57
2022/07/12 00:39:03;;;;;;;;;;;;;;;26.62;46.70;99762.69;2059545;28;20662;-56
2022/07/12 00:40:05;;;;;;;;;;;;;;;26.63;46.71;99758.00;2056194;28;19937;-56
2022/07/12 00:41:05;;;;;;;;;;;;;;;26.63;46.70;99758.00;2047694;28;20335;-57
2022/07/12 00:42:05;;;;;;;;;;;;;;;26.63;46.84;99760.75;2057548;28;19913;-56
2022/07/12 00:43:06;;;;;;;;;;;;;;;26.63;46.98;99753.34;2053176;28;20368;-56
2022/07/12 00:44:06;;;;;;;;;;;;;;;26.62;46.75;99754.41;2060336;28;19960;-56
2022/07/12 00:45:07;;;;;;;;;;;;;;;26.62;46.97;99750.78;2056265;28;19929;-56
2022/07/12 00:46:08;;;;;;;;;;;;;;;26.63;46.77;99769.06;2058758;28;19931;-56
2022/07/12 00:47:20;;;;;;;;;;;;;;;26.63;46.70;99758.00;2059384;28;19917;-57
2022/07/12 00:48:20;;;;;;;;;;;;;;;26.62;47.03;99757.16;2058485;28;20629;-57
2022/07/12 00:49:22;;;;;;;;;;;;;;;26.63;46.94;99758.88;2059745;28;19964;-56
2022/07/12 00:50:22;;;;;;;;;;;;;;;26.63;46.71;99760.75;2058644;28;19917;-56
2022/07/12 00:51:23;;;;;;;;;;;;;;;26.63;46.71;99764.41;2060428;28;19925;-56
2022/07/12 00:52:23;;;;;;;;;;;;;;;26.63;47.01;99763.53;2059764;28;19918;-57
2022/07/12 00:53:25;;;;;;;;;;;;;;;26.61;46.83;99763.75;2058942;28;19925;-56
2022/07/12 00:54:25;;;;;;;;;;;;;;;26.62;46.85;99764.59;2054018;28;19918;-56
2022/07/12 00:55:26;;;;;;;;;;;;;;;26.62;46.94;99764.59;2055005;28;19924;-56
2022/07/12 00:56:26;;;;;;;;;;;;;;;26.61;46.95;99763.75;2054464;28;20322;-56
2022/07/12 00:57:27;;;;;;;;;;;;;;;26.62;46.82;99770.13;2059332;28;19917;-56
2022/07/12 00:58:28;;;;;;;;;;;;;;;26.61;46.95;99766.53;2058167;28;20344;-57
2022/07/12 00:59:28;;;;;;;;;;;;;;;26.61;46.97;99762.91;2059914;28;19921;-56
2022/07/12 01:00:28;;;;;;;;;;;;;;;26.60;46.92;99763.97;2059705;28;20182;-55
2022/07/12 01:01:29;;;;;;;;;;;;;;;26.60;46.96;99769.47;2054219;28;20263;-56
2022/07/12 01:02:31;;;;;;;;;;;;;;;26.60;46.67;99763.97;2052514;28;20282;-56
2022/07/12 01:03:31;;;;;;;;;;;;;;;26.61;46.77;99760.16;2059444;28;19924;-56
2022/07/12 01:04:32;;;;;;;;;;;;;;;26.59;46.69;99768.63;2064014;28;20119;-56
2022/07/12 01:05:33;;;;;;;;;;;;;;;26.59;46.65;99757.59;2062781;28;19913;-56
2022/07/12 01:06:34;;;;;;;;;;;;;;;26.60;46.66;99763.97;2060208;28;20828;-56
2022/07/12 01:07:34;;;;;;;;;;;;;;;26.60;46.69;99763.97;2059418;28;20304;-56
2022/07/12 01:08:35;;;;;;;;;;;;;;;26.59;46.99;99757.59;2058537;28;19975;-56
2022/07/12 01:09:35;;;;;;;;;;;;;;;26.60;46.94;99763.97;2053630;28;19945;-56
2022/07/12 01:10:37;;;;;;;;;;;;;;;26.60;46.64;99763.97;2054490;28;19917;-55
2022/07/12 01:11:37;;;;;;;;;;;;;;;26.60;46.71;99763.97;2056044;28;19917;-56
2022/07/12 01:12:38;;;;;;;;;;;;;;;26.59;46.86;99756.72;2052477;28;20374;-57
2022/07/12 01:13:39;;;;;;;;;;;;;;;26.60;46.85;99761.19;2055906;28;19909;-56
2022/07/12 01:14:40;;;;;;;;;;;;;;;26.60;47.01;99766.72;2057752;28;19976;-56
2022/07/12 01:15:41;;;;;;;;;;;;;;;26.60;46.69;99759.28;2058020;28;20493;-56
2022/07/12 01:16:41;;;;;;;;;;;;;;;26.60;46.83;99766.72;2058478;28;19988;-55
2022/07/12 01:17:43;;;;;;;;;;;;;;;26.61;46.83;99765.69;2060086;28;20288;-57
2022/07/12 01:18:44;;;;;;;;;;;;;;;26.60;46.77;99758.44;2060815;28;19925;-56
2022/07/12 01:19:44;;;;;;;;;;;;;;;26.61;46.77;99760.16;2064188;28;20420;-56
2022/07/12 01:20:45;;;;;;;;;;;;;;;26.60;47.05;99758.44;2059426;28;20232;-56
2022/07/12 01:21:46;;;;;;;;;;;;;;;26.60;47.13;99762.03;2057669;28;20161;-57
2022/07/12 01:22:59;;;;;;;;;;;;;;;26.60;46.73;99763.97;2060434;28;19916;-55
2022/07/12 01:24:00;;;;;;;;;;;;;;;26.60;46.96;99770.31;2057088;28;19957;-56
2022/07/12 01:25:02;;;;;;;;;;;;;;;26.60;46.81;99759.28;2060594;28;19917;-56
2022/07/12 01:26:03;;;;;;;;;;;;;;;26.59;46.72;99760.34;2061788;28;19960;-57
2022/07/12 01:27:04;;;;;;;;;;;;;;;26.59;46.84;99760.34;2057446;28;20228;-57
2022/07/12 01:28:04;;;;;;;;;;;;;;;26.60;46.95;99759.28;2055522;28;19953;-57
2022/07/12 01:29:06;;;;;;;;;;;;;;;26.61;47.00;99762.91;2054871;28;19918;-56
2022/07/12 01:30:06;;;;;;;;;;;;;;;26.60;47.10;99763.97;2054077;28;19916;-56
2022/07/12 01:31:07;;;;;;;;;;;;;;;26.60;46.91;99764.81;2054726;28;20576;-56
2022/07/12 01:32:26;;;;;;;;;;;;;;;26.60;47.03;99758.44;2059020;28;20482;-57
2022/07/12 01:33:27;;;;;;;;;;;;;;;26.60;46.94;99761.19;2060503;28;19960;-56
2022/07/12 01:34:28;;;;;;;;;;;;;;;26.60;46.80;99766.72;2061163;28;19917;-57
2022/07/12 01:35:28;;;;;;;;;;;;;;;26.59;46.85;99768.63;2061810;28;19981;-56
2022/07/12 01:36:30;;;;;;;;;;;;;;;26.59;46.99;99767.78;2057796;28;19921;-57
2022/07/12 01:37:32;;;;;;;;;;;;;;;26.59;47.14;99767.78;2052817;28;19949;-55
2022/07/12 01:38:33;;;;;;;;;;;;;;;26.59;47.11;99765.03;2055080;28;19910;-56
2022/07/12 01:39:33;;;;;;;;;;;;;;;26.58;47.10;99766.94;2061073;28;20611;-56
2022/07/12 01:40:35;;;;;;;;;;;;;;;26.58;47.03;99768.84;2060450;28;19924;-56
2022/07/12 01:41:36;;;;;;;;;;;;;;;26.57;46.95;99769.91;2058462;28;19921;-56
2022/07/12 01:42:36;;;;;;;;;;;;;;;26.57;47.11;99762.47;2061295;28;19945;-56
2022/07/12 01:43:37;;;;;;;;;;;;;;;26.56;46.84;99765.44;2060879;28;19945;-57
2022/07/12 01:44:37;;;;;;;;;;;;;;;26.57;46.89;99769.91;2060973;28;19925;-56
2022/07/12 01:45:37;;;;;;;;;;;;;;;26.57;47.17;99769.91;2059914;28;19925;-55
2022/07/12 01:46:38;;;;;;;;;;;;;;;26.57;46.96;99770.75;2058719;28;19926;-56
2022/07/12 01:47:38;;;;;;;;;;;;;;;26.58;46.86;99766.06;2060257;28;19917;-56
2022/07/12 01:48:39;;;;;;;;;;;;;;;26.57;47.16;99768.00;2058258;28;19921;-55
2022/07/12 01:49:39;;;;;;;;;;;;;;;26.58;46.87;99774.38;2056658;28;19922;-56
2022/07/12 01:50:39;;;;;;;;;;;;;;;26.58;47.15;99766.06;2058493;28;19913;-56
2022/07/12 01:51:39;;;;;;;;;;;;;;;26.58;46.92;99763.31;2054219;28;19926;-56
2022/07/12 01:52:40;;;;;;;;;;;;;;;26.58;47.18;99766.06;2056943;28;19976;-56
2022/07/12 01:53:41;;;;;;;;;;;;;;;26.57;46.87;99769.91;2061142;28;20012;-55
2022/07/12 01:54:42;;;;;;;;;;;;;;;26.58;46.89;99771.59;2061257;28;20258;-56
2022/07/12 01:55:43;;;;;;;;;;;;;;;26.57;47.19;99768.00;2061360;28;19940;-56
2022/07/12 01:56:43;;;;;;;;;;;;;;;26.57;47.02;99769.91;2061147;28;20000;-56
2022/07/12 01:57:44;;;;;;;;;;;;;;;26.58;47.17;99769.72;2061371;28;20549;-56
2022/07/12 01:58:45;;;;;;;;;;;;;;;26.58;47.15;99777.13;2059184;28;19905;-55
2022/07/12 01:59:45;;;;;;;;;;;;;;;26.57;46.97;99773.50;2058674;28;19913;-56
2022/07/12 02:00:51;;;;;;;;;;;;;;;26.57;46.95;99768.00;2058119;28;20328;-55
2022/07/12 02:01:51;;;;;;;;;;;;;;;26.58;47.07;99777.13;2059787;28;19927;-55
2022/07/12 02:02:52;;;;;;;;;;;;;;;26.58;47.01;99772.47;2058595;28;19921;-56
2022/07/12 02:03:53;;;;;;;;;;;;;;;26.59;46.97;99778.84;2063528;28;19924;-55
2022/07/12 02:04:54;;;;;;;;;;;;;;;26.58;46.95;99771.59;2058303;28;19936;-56
2022/07/12 02:05:54;;;;;;;;;;;;;;;26.59;47.18;99778.84;2053949;28;19913;-55
2022/07/12 02:06:55;;;;;;;;;;;;;;;26.57;46.98;99772.66;2048784;28;20379;-55
2022/07/12 02:07:56;;;;;;;;;;;;;;;26.57;47.09;99770.75;2056741;28;19921;-55
2022/07/12 02:08:56;;;;;;;;;;;;;;;26.57;47.19;99767.13;2058576;28;20220;-55
2022/07/12 02:09:57;;;;;;;;;;;;;;;26.57;47.13;99769.91;2059176;28;20027;-55
2022/07/12 02:10:57;;;;;;;;;;;;;;;26.57;46.93;99769.91;2057375;28;19921;-55
2022/07/12 02:11:58;;;;;;;;;;;;;;;26.57;46.93;99770.75;2059985;28;19925;-56
2022/07/12 02:13:02;;;;;;;;;;;;;;;26.57;46.94;99769.91;2058675;28;20133;-55
2022/07/12 02:14:02;;;;;;;;;;;;;;;26.57;47.16;99775.44;2051198;28;20476;-56
2022/07/12 02:15:04;;;;;;;;;;;;;;;26.57;47.25;99772.66;2052230;28;19925;-55
2022/07/12 02:16:05;;;;;;;;;;;;;;;26.56;47.03;99773.75;2057557;28;20011;-55
2022/07/12 02:17:05;;;;;;;;;;;;;;;26.56;46.94;99774.59;2060535;28;19933;-56
2022/07/12 02:18:05;;;;;;;;;;;;;;;26.56;47.31;99779.28;2056883;28;19921;-56
2022/07/12 02:19:06;;;;;;;;;;;;;;;26.56;47.12;99779.28;2059713;28;20216;-55
2022/07/12 02:20:09;;;;;;;;;;;;;;;26.56;47.33;99776.50;2057930;28;19944;-56
2022/07/12 02:21:09;;;;;;;;;;;;;;;26.56;47.33;99773.75;2054109;28;20287;-56
2022/07/12 02:22:10;;;;;;;;;;;;;;;26.55;47.12;99772.03;2048955;28;19921;-56
2022/07/12 02:23:10;;;;;;;;;;;;;;;26.56;47.31;99779.28;2058836;28;20465;-55
2022/07/12 02:24:10;;;;;;;;;;;;;;;26.55;47.31;99777.53;2061770;28;20336;-56
2022/07/12 02:25:11;;;;;;;;;;;;;;;26.54;47.10;99779.47;2059161;28;20316;-55
2022/07/12 02:26:11;;;;;;;;;;;;;;;26.55;47.14;99777.53;2056614;28;19925;-55
2022/07/12 02:27:12;;;;;;;;;;;;;;;26.54;47.13;99781.38;2054149;28;19963;-55
2022/07/12 02:28:12;;;;;;;;;;;;;;;26.55;47.38;99774.78;2058930;28;20047;-56
2022/07/12 02:29:12;;;;;;;;;;;;;;;26.55;47.13;99780.31;2058764;28;19918;-55
2022/07/12 02:30:13;;;;;;;;;;;;;;;26.55;47.09;99780.31;2058120;28;20252;-55
2022/07/12 02:31:14;;;;;;;;;;;;;;;26.54;47.14;99778.63;2057263;28;21246;-57
2022/07/12 02:32:14;;;;;;;;;;;;;;;26.54;47.38;99775.84;2060011;28;19928;-56
2022/07/12 02:33:15;;;;;;;;;;;;;;;26.54;47.26;99782.22;2058054;28;19921;-55
2022/07/12 02:34:16;;;;;;;;;;;;;;;26.54;47.13;99782.22;2060813;28;19921;-55
2022/07/12 02:35:16;;;;;;;;;;;;;;;26.54;47.28;99775.84;2060532;28;19914;-56
2022/07/12 02:36:16;;;;;;;;;;;;;;;26.54;47.21;99779.47;2065137;28;19924;-55
2022/07/12 02:37:16;;;;;;;;;;;;;;;26.55;47.30;99778.41;2062558;28;19921;-56
2022/07/12 02:38:17;;;;;;;;;;;;;;;26.55;47.29;99774.78;2060297;28;20368;-55
2022/07/12 02:39:17;;;;;;;;;;;;;;;26.55;47.37;99772.88;2058195;28;20326;-56
2022/07/12 02:41:36;;;;;;;;;;;;;;;26.57;47.17;99783.72;2054638;28;19921;-56
2022/07/12 02:42:37;;;;;;;;;;;;;;;26.55;47.38;99778.41;2058874;28;19961;-56
2022/07/12 02:43:37;;;;;;;;;;;;;;;26.55;47.32;99781.16;2058185;28;19909;-55
2022/07/12 02:44:37;;;;;;;;;;;;;;;26.55;47.21;99783.91;2058172;28;19920;-55
2022/07/12 02:45:37;;;;;;;;;;;;;;;26.56;47.25;99787.56;2060047;28;20331;-56
2022/07/12 02:46:38;;;;;;;;;;;;;;;26.56;47.18;99790.31;2058743;28;20739;-57
2022/07/12 02:47:39;;;;;;;;;;;;;;;26.55;47.45;99783.06;2060921;28;19925;-55
2022/07/12 02:48:39;;;;;;;;;;;;;;;26.55;47.49;99783.06;2055406;28;19921;-55
2022/07/12 02:49:40;;;;;;;;;;;;;;;26.56;47.52;99784.81;2059278;28;19925;-56
2022/07/12 02:50:41;;;;;;;;;;;;;;;26.56;47.40;99787.56;2061230;28;19928;-56
2022/07/12 02:51:41;;;;;;;;;;;;;;;26.55;47.46;99789.44;2062611;28;19918;-55
2022/07/12 02:52:42;;;;;;;;;;;;;;;26.55;47.38;99783.06;2060669;28;20299;-55
2022/07/12 02:53:43;;;;;;;;;;;;;;;26.55;47.46;99785.84;2060453;28;20363;-55
2022/07/12 02:54:43;;;;;;;;;;;;;;;26.55;47.48;99783.06;2051872;28;19918;-55
2022/07/12 02:55:44;;;;;;;;;;;;;;;26.55;47.20;99777.53;2048033;28;19918;-55
2022/07/12 02:56:45;;;;;;;;;;;;;;;26.54;47.46;99784.16;2055335;28;20332;-55
2022/07/12 02:57:45;;;;;;;;;;;;;;;26.53;47.50;99788.78;2060509;28;20638;-55
2022/07/12 02:58:45;;;;;;;;;;;;;;;26.54;47.29;99784.16;2058274;28;19909;-56
2022/07/12 02:59:46;;;;;;;;;;;;;;;26.53;47.25;99791.56;2061921;28;19917;-56
2022/07/12 03:00:46;;;;;;;;;;;;;;;26.52;47.29;99793.44;2059629;28;19974;-56
2022/07/12 03:01:46;;;;;;;;;;;;;;;26.52;47.26;99793.44;2056421;28;19989;-55
2022/07/12 03:02:47;;;;;;;;;;;;;;;26.52;47.54;99789.84;2059426;28;20296;-55
2022/07/12 03:03:47;;;;;;;;;;;;;;;26.52;47.32;99795.38;2060760;28;19984;-55
2022/07/12 03:04:47;;;;;;;;;;;;;;;26.51;47.62;99789.00;2057902;28;20197;-56
2022/07/12 03:05:48;;;;;;;;;;;;;;;26.51;47.34;99791.75;2057518;28;20097;-55
2022/07/12 03:06:48;;;;;;;;;;;;;;;26.51;47.67;99793.69;2056117;28;19924;-55
2022/07/12 03:07:48;;;;;;;;;;;;;;;26.51;47.50;99794.53;2059832;28;19914;-55
2022/07/12 03:08:49;;;;;;;;;;;;;;;26.51;47.44;99800.03;2055635;28;19945;-55
2022/07/12 03:09:49;;;;;;;;;;;;;;;26.51;47.70;99800.03;2055425;28;20355;-56
2022/07/12 03:10:49;;;;;;;;;;;;;;;26.52;47.30;99806.41;2060447;28;19921;-56
2022/07/12 03:11:49;;;;;;;;;;;;;;;26.51;47.62;99794.53;2056636;28;19917;-57
2022/07/12 03:12:50;;;;;;;;;;;;;;;26.51;47.56;99794.53;2058656;28;19949;-55
2022/07/12 03:13:50;;;;;;;;;;;;;;;26.52;47.57;99798.13;2061542;28;20004;-55
2022/07/12 03:14:50;;;;;;;;;;;;;;;26.51;47.59;99805.56;2056266;28;20372;-56
2022/07/12 03:15:51;;;;;;;;;;;;;;;26.51;47.34;99805.56;2060839;28;20245;-55
2022/07/12 03:16:51;;;;;;;;;;;;;;;26.52;47.64;99806.41;2059826;28;19918;-56
2022/07/12 03:17:51;;;;;;;;;;;;;;;26.52;47.33;99804.50;2057175;28;19925;-55
2022/07/12 03:18:52;;;;;;;;;;;;;;;26.52;47.58;99800.91;2054696;28;19933;-56
2022/07/12 03:19:52;;;;;;;;;;;;;;;26.53;47.29;99802.63;2052979;28;19940;-56
2022/07/12 03:20:53;;;;;;;;;;;;;;;26.52;47.61;99801.75;2058188;28;20279;-55
2022/07/12 03:21:53;;;;;;;;;;;;;;;26.53;47.36;99802.63;2052292;28;19969;-56
2022/07/12 03:22:53;;;;;;;;;;;;;;;26.52;47.42;99803.66;2051302;28;19952;-55
2022/07/12 03:23:54;;;;;;;;;;;;;;;26.52;47.41;99795.38;2060200;28;19925;-56
2022/07/12 03:24:54;;;;;;;;;;;;;;;26.52;47.32;99801.75;2054501;28;19922;-56
2022/07/12 03:25:54;;;;;;;;;;;;;;;26.54;47.65;99806.25;2054298;28;19953;-56
2022/07/12 03:26:55;;;;;;;;;;;;;;;26.52;47.64;99801.75;2052378;28;20339;-55
2022/07/12 03:27:55;;;;;;;;;;;;;;;26.52;47.46;99807.25;2056430;28;19918;-56
2022/07/12 03:28:55;;;;;;;;;;;;;;;26.52;47.64;99810.03;2061177;28;19956;-55
2022/07/12 03:29:56;;;;;;;;;;;;;;;26.51;47.42;99805.56;2059382;28;20024;-56
2022/07/12 03:30:56;;;;;;;;;;;;;;;26.52;47.58;99806.41;2058725;28;19964;-55
2022/07/12 03:31:57;;;;;;;;;;;;;;;26.52;47.63;99807.25;2059533;28;20296;-56
2022/07/12 03:32:57;;;;;;;;;;;;;;;26.52;47.54;99804.50;2053623;28;19968;-55
2022/07/12 03:33:57;;;;;;;;;;;;;;;26.52;47.41;99807.25;2056200;28;20557;-55
2022/07/12 03:34:57;;;;;;;;;;;;;;;26.50;47.65;99809.38;2060146;28;20016;-56
2022/07/12 03:35:58;;;;;;;;;;;;;;;26.51;47.69;99811.09;2058491;28;19921;-56
2022/07/12 03:36:59;;;;;;;;;;;;;;;26.50;47.45;99809.38;2061902;28;19960;-55
2022/07/12 03:37:59;;;;;;;;;;;;;;;26.49;47.60;99807.69;2057819;28;19909;-55
2022/07/12 03:38:59;;;;;;;;;;;;;;;26.49;47.82;99802.16;2060165;28;20017;-56
2022/07/12 03:39:59;;;;;;;;;;;;;;;26.48;47.64;99800.47;2058275;28;20355;-56
2022/07/12 03:41:00;;;;;;;;;;;;;;;26.48;47.67;99800.47;2060892;28;20323;-56
2022/07/12 03:42:01;;;;;;;;;;;;;;;26.47;47.80;99809.78;2059804;28;19917;-55
2022/07/12 03:43:01;;;;;;;;;;;;;;;26.48;47.89;99799.59;2050735;28;20356;-55
2022/07/12 03:44:02;;;;;;;;;;;;;;;26.48;47.87;99802.34;2052533;28;19918;-56
2022/07/12 03:45:03;;;;;;;;;;;;;;;26.47;47.90;99801.50;2060275;28;19921;-55
2022/07/12 03:46:03;;;;;;;;;;;;;;;26.46;47.75;99799.81;2059485;28;19918;-55
2022/07/12 03:47:04;;;;;;;;;;;;;;;26.47;47.94;99803.44;2053596;28;19918;-56
2022/07/12 03:48:04;;;;;;;;;;;;;;;26.46;47.63;99802.56;2051564;28;19917;-56
2022/07/12 03:49:05;;;;;;;;;;;;;;;26.46;47.76;99805.34;2060303;28;19918;-55
2022/07/12 03:50:07;;;;;;;;;;;;;;;26.47;47.74;99797.91;2059951;28;19921;-55
2022/07/12 03:51:07;;;;;;;;;;;;;;;26.46;47.73;99802.56;2063609;28;19917;-55
2022/07/12 03:52:07;;;;;;;;;;;;;;;26.47;47.65;99803.44;2051735;28;20795;-55
2022/07/12 03:53:07;;;;;;;;;;;;;;;26.46;47.52;99802.56;2051286;28;19999;-56
2022/07/12 03:54:08;;;;;;;;;;;;;;;26.47;47.75;99807.03;2059367;28;19927;-56
2022/07/12 03:55:12;;;;;;;;;;;;;;;26.47;47.52;99803.44;2061188;28;19917;-55
2022/07/12 03:57:13;;;;;;;;;;;;;;;26.48;47.76;99810.66;2058690;28;19917;-56
2022/07/12 03:57:33;;;;;;;;;;;;;;;26.47;47.84;99804.28;2056663;28;19914;-55
2022/07/12 03:58:33;;;;;;;;;;;;;;;26.48;47.50;99806.00;2060792;28;19917;-55
2022/07/12 03:59:33;;;;;;;;;;;;;;;26.47;47.38;99798.75;2059286;28;19977;-56
2022/07/12 04:00:34;;;;;;;;;;;;;;;26.48;47.51;99806.00;2057873;28;20303;-56
2022/07/12 04:01:34;;;;;;;;;;;;;;;26.47;47.46;99807.03;2061529;28;19924;-56
2022/07/12 04:02:34;;;;;;;;;;;;;;;26.48;47.50;99799.59;2060649;28;19917;-56
2022/07/12 04:03:34;;;;;;;;;;;;;;;26.48;47.71;99808.75;2060940;28;19909;-55
2022/07/12 04:04:35;;;;;;;;;;;;;;;26.48;47.69;99808.75;2059825;28;20622;-56
2022/07/12 04:05:36;;;;;;;;;;;;;;;26.48;47.67;99806.00;2059591;28;20460;-57
2022/07/12 04:06:36;;;;;;;;;;;;;;;26.48;47.57;99806.00;2060347;28;19917;-56
2022/07/12 04:07:37;;;;;;;;;;;;;;;26.48;47.36;99806.00;2054686;28;20334;-55
2022/07/12 04:08:37;;;;;;;;;;;;;;;26.48;47.50;99811.53;2058335;28;19916;-55
2022/07/12 04:09:37;;;;;;;;;;;;;;;26.48;47.59;99807.88;2053966;28;19975;-57
2022/07/12 04:10:38;;;;;;;;;;;;;;;26.49;47.41;99815.13;2058404;28;19921;-56
2022/07/12 04:11:38;;;;;;;;;;;;;;;26.49;47.61;99817.91;2057490;28;19924;-56
2022/07/12 04:12:38;;;;;;;;;;;;;;;26.48;47.59;99805.13;2059763;28;20351;-55
2022/07/12 04:13:39;;;;;;;;;;;;;;;26.49;47.46;99812.38;2059259;28;19941;-56
2022/07/12 04:14:40;;;;;;;;;;;;;;;26.48;47.67;99810.66;2052229;28;20230;-55
2022/07/12 04:15:41;;;;;;;;;;;;;;;26.47;47.52;99815.31;2053014;28;20024;-55
2022/07/12 04:16:41;;;;;;;;;;;;;;;26.48;47.66;99810.66;2060320;28;19917;-56
2022/07/12 04:17:42;;;;;;;;;;;;;;;26.47;47.68;99818.09;2060299;28;19928;-56
2022/07/12 04:18:42;;;;;;;;;;;;;;;26.48;47.70;99821.69;2060351;28;19979;-56
2022/07/12 04:19:42;;;;;;;;;;;;;;;26.47;47.62;99815.31;2061050;28;19956;-55
2022/07/12 04:20:43;;;;;;;;;;;;;;;26.47;47.53;99820.84;2058199;28;20528;-55
2022/07/12 04:21:43;;;;;;;;;;;;;;;26.46;47.71;99824.69;2065983;28;20265;-55
2022/07/12 04:22:43;;;;;;;;;;;;;;;26.47;47.77;99828.31;2057107;28;19957;-56
2022/07/12 04:23:43;;;;;;;;;;;;;;;26.45;47.71;99817.44;2060540;28;20139;-55
2022/07/12 04:24:44;;;;;;;;;;;;;;;26.45;47.88;99817.44;2059410;28;20686;-56
2022/07/12 04:25:44;;;;;;;;;;;;;;;26.46;47.58;99818.31;2059899;28;19923;-55
2022/07/12 04:26:44;;;;;;;;;;;;;;;26.45;47.49;99828.50;2061130;28;20333;-55
2022/07/12 04:27:45;;;;;;;;;;;;;;;26.46;47.58;99830.22;2061055;28;19921;-56
2022/07/12 04:28:45;;;;;;;;;;;;;;;26.46;47.58;99827.44;2059355;28;19921;-55
2022/07/12 04:29:45;;;;;;;;;;;;;;;26.47;47.87;99831.91;2060353;28;19914;-55
2022/07/12 04:30:46;;;;;;;;;;;;;;;26.47;47.84;99831.91;2061773;28;20328;-54
2022/07/12 04:31:47;;;;;;;;;;;;;;;26.47;47.97;99831.06;2064011;28;19923;-55
2022/07/12 04:32:48;;;;;;;;;;;;;;;26.48;47.77;99827.22;2050618;28;19920;-54
2022/07/12 04:33:48;;;;;;;;;;;;;;;26.47;47.62;99831.91;2054290;28;19933;-54
2022/07/12 04:34:48;;;;;;;;;;;;;;;26.47;47.76;99842.97;2059241;28;19924;-55
2022/07/12 04:35:49;;;;;;;;;;;;;;;26.47;47.72;99831.06;2062687;28;20271;-55
2022/07/12 04:36:49;;;;;;;;;;;;;;;26.47;47.84;99833.81;2062815;28;19928;-55
2022/07/12 04:37:50;;;;;;;;;;;;;;;26.47;47.84;99837.44;2060014;28;19913;-53
2022/07/12 04:38:50;;;;;;;;;;;;;;;26.48;47.88;99833.63;2060852;28;19971;-53
2022/07/12 04:39:50;;;;;;;;;;;;;;;26.47;47.57;99837.44;2058363;28;20335;-53
2022/07/12 04:40:50;;;;;;;;;;;;;;;26.49;47.85;99840.84;2060394;28;20105;-53
2022/07/12 04:41:51;;;;;;;;;;;;;;;26.48;47.53;99841.94;2058574;28;20363;-52
2022/07/12 04:42:51;;;;;;;;;;;;;;;26.48;47.39;99844.69;2050999;28;19918;-52
2022/07/12 04:43:52;;;;;;;;;;;;;;;26.48;47.64;99844.69;2052762;28;19917;-53
2022/07/12 04:44:53;;;;;;;;;;;;;;;26.49;47.45;99846.38;2057607;28;19922;-52
2022/07/12 04:45:53;;;;;;;;;;;;;;;26.48;47.62;99839.16;2059570;28;19968;-49
2022/07/12 04:46:53;;;;;;;;;;;;;;;26.48;47.51;99844.69;2060000;28;20379;-48
2022/07/12 04:47:54;;;;;;;;;;;;;;;26.49;47.53;99849.16;2058155;28;19922;-51
2022/07/12 04:48:54;;;;;;;;;;;;;;;26.48;47.40;99839.16;2059684;28;20795;-51
2022/07/12 04:49:54;;;;;;;;;;;;;;;26.49;47.67;99840.84;2059980;28;20730;-48
2022/07/12 04:50:55;;;;;;;;;;;;;;;26.49;47.45;99843.63;2058470;28;20031;-47
2022/07/12 04:51:55;;;;;;;;;;;;;;;26.49;47.35;99834.47;2051088;28;20188;-47
2022/07/12 04:52:55;;;;;;;;;;;;;;;26.49;47.68;99846.38;2051843;28;20199;-48
2022/07/12 04:53:56;;;;;;;;;;;;;;;26.49;47.51;99849.16;2060551;28;20323;-49
2022/07/12 04:54:56;;;;;;;;;;;;;;;26.50;47.66;99853.59;2060225;28;19921;-49
2022/07/12 04:55:57;;;;;;;;;;;;;;;26.50;47.56;99848.06;2059322;28;19929;-51
2022/07/12 04:56:57;;;;;;;;;;;;;;;26.49;47.63;99843.63;2061308;28;19917;-48
2022/07/12 04:57:57;;;;;;;;;;;;;;;26.50;47.67;99853.59;2057938;28;19921;-49
2022/07/12 04:58:57;;;;;;;;;;;;;;;26.49;47.70;99840.84;2059157;28;19917;-51
2022/07/12 04:59:58;;;;;;;;;;;;;;;26.48;47.42;99847.44;2060406;28;19924;-51
2022/07/12 05:00:58;;;;;;;;;;;;;;;26.49;47.65;99849.16;2059794;28;19917;-48
2022/07/12 05:01:58;;;;;;;;;;;;;;;26.48;47.64;99850.22;2059717;28;19917;-48
2022/07/12 05:02:59;;;;;;;;;;;;;;;26.49;47.64;99851.06;2059587;28;19917;-48
2022/07/12 05:03:59;;;;;;;;;;;;;;;26.48;47.57;99855.75;2058388;28;19949;-50
2022/07/12 05:04:59;;;;;;;;;;;;;;;26.48;47.35;99852.97;2058721;28;19929;-50
2022/07/12 05:06:00;;;;;;;;;;;;;;;26.47;47.51;99854.03;2055553;28;19924;-51
2022/07/12 05:07:00;;;;;;;;;;;;;;;26.47;47.63;99856.78;2057890;28;20004;-48
2022/07/12 05:08:00;;;;;;;;;;;;;;;26.47;47.31;99859.53;2058949;28;20015;-48
2022/07/12 05:09:01;;;;;;;;;;;;;;;26.46;47.73;99860.63;2053635;28;19918;-48
2022/07/12 05:10:01;;;;;;;;;;;;;;;26.47;47.55;99858.69;2053228;28;20423;-49
2022/07/12 05:11:01;;;;;;;;;;;;;;;26.46;47.71;99857.84;2056499;28;19917;-51
2022/07/12 05:12:02;;;;;;;;;;;;;;;26.47;47.52;99865.06;2057612;28;19921;-51
2022/07/12 05:13:03;;;;;;;;;;;;;;;26.46;47.58;99857.00;2060172;28;19923;-49
2022/07/12 05:14:03;;;;;;;;;;;;;;;26.46;47.69;99868.91;2056259;28;19917;-49
2022/07/12 05:15:04;;;;;;;;;;;;;;;26.46;47.39;99865.28;2055005;28;19929;-49
2022/07/12 05:16:06;;;;;;;;;;;;;;;26.47;47.37;99869.75;2060484;28;19924;-56
2022/07/12 05:17:06;;;;;;;;;;;;;;;26.46;47.37;99868.91;2058753;28;20186;-56
2022/07/12 05:18:06;;;;;;;;;;;;;;;26.46;47.58;99868.91;2057601;28;20219;-55